Time;durP1;ratioP1;P1;durP2;ratioP2;P2;SDS_P1;SDS_P2;PMS_P1;PMS_P2;Temp;Humidity;BMP_temperature;BMP_pressure;BME280_temperature;BME280_humidity;BME280_pressure;Samples;Min_cycle;Max_cycle;Signal;HPM_P1;HPM_P2
2022/06/22 00:00:58;;;;;;;8.70;3.10;;;;;16.00;96915.40;;;;110477;1253;41149;-66
2022/06/22 00:03:28;;;;;;;10.10;2.50;;;;;15.90;96914.20;;;;110833;1252;41484;-65
2022/06/22 00:05:58;;;;;;;7.90;2.70;;;;;15.90;96920.00;;;;110551;1253;41230;-65
2022/06/22 00:08:37;;;;;;;5.60;2.20;;;;;15.80;96918.60;;;;110519;1253;41227;-66
2022/06/22 00:11:13;;;;;;;6.00;2.20;;;;;15.80;96918.60;;;;110590;1253;41492;-66
2022/06/22 00:13:50;;;;;;;3.40;1.60;;;;;15.76;96918.20;;;;110595;1252;41157;-65
2022/06/22 00:16:34;;;;;;;3.60;1.70;;;;;15.70;96924.60;;;;110542;1255;41548;-66
2022/06/22 00:19:22;;;;;;;5.10;1.60;;;;;15.70;96927.40;;;;110563;1253;42457;-65
2022/06/22 00:21:52;;;;;;;5.00;1.80;;;;;15.70;96934.00;;;;110530;1253;41149;-65
2022/06/22 00:24:22;;;;;;;2.90;1.60;;;;;15.60;96930.80;;;;110648;1253;40742;-65
2022/06/22 00:26:54;;;;;;;;;;;;;15.60;96930.00;;;;110528;1253;41180;-66
2022/06/22 00:29:25;;;;;;;;;;;;;15.50;96932.00;;;;110659;1252;41259;-66
2022/06/22 00:31:55;;;;;;;;;;;;;15.50;96937.40;;;;110597;1253;41144;-66
2022/06/22 00:34:28;;;;;;;2.10;1.50;;;;;15.40;96935.80;;;;110638;1252;41944;-66
2022/06/22 00:37:03;;;;;;;2.20;1.20;;;;;15.40;96928.20;;;;110519;1253;41254;-65
2022/06/22 00:39:41;;;;;;;3.80;1.50;;;;;15.34;96923.20;;;;110485;1254;41441;-65
2022/06/22 00:42:14;;;;;;;1.90;1.40;;;;;15.30;96924.00;;;;110463;1253;41160;-66
2022/06/22 00:45:03;;;;;;;1.90;1.40;;;;;15.30;96928.00;;;;110421;1253;41197;-65
2022/06/22 00:47:55;;;;;;;3.40;1.60;;;;;15.30;96932.80;;;;110601;1253;42183;-65
2022/06/22 00:50:37;;;;;;;2.00;1.40;;;;;15.30;96929.00;;;;110580;1253;41157;-65
2022/06/22 00:53:33;;;;;;;1.90;1.50;;;;;15.28;96937.20;;;;110568;1255;41281;-65
2022/06/22 00:56:23;;;;;;;1.90;1.40;;;;;15.20;96935.00;;;;110593;1253;41752;-65
2022/06/22 00:58:56;;;;;;;3.60;1.50;;;;;15.20;96944.20;;;;110620;1252;41191;-65
2022/06/22 01:01:47;;;;;;;3.60;1.60;;;;;15.10;96947.60;;;;110420;1256;42372;-65
2022/06/22 01:04:26;;;;;;;2.40;1.50;;;;;15.00;96956.20;;;;110588;1253;41959;-65
2022/06/22 01:07:02;;;;;;;2.20;1.40;;;;;15.00;96951.20;;;;110586;1253;41810;-65
2022/06/22 01:10:00;;;;;;;3.10;1.60;;;;;14.98;96941.80;;;;110452;1254;41655;-66
2022/06/22 01:12:40;;;;;;;2.50;1.60;;;;;14.92;96942.20;;;;110540;1253;41193;-65
2022/06/22 01:15:33;;;;;;;2.20;1.40;;;;;14.90;96946.40;;;;110555;1253;41149;-65
2022/06/22 01:18:30;;;;;;;2.70;1.50;;;;;14.90;96956.40;;;;110483;1253;41157;-65
2022/06/22 01:21:05;;;;;;;2.40;1.60;;;;;14.80;96957.60;;;;110522;1253;41152;-66
2022/06/22 01:23:55;;;;;;;4.70;1.60;;;;;14.80;96954.60;;;;110621;1253;41354;-65
2022/06/22 01:26:45;;;;;;;2.60;1.60;;;;;14.80;96950.00;;;;110628;1252;41268;-65
2022/06/22 01:29:22;;;;;;;3.10;1.60;;;;;14.76;96954.00;;;;110525;1253;41192;-65
2022/06/22 01:32:03;;;;;;;3.30;1.60;;;;;14.70;96944.40;;;;110472;1255;41262;-65
2022/06/22 01:34:39;;;;;;;2.20;1.60;;;;;14.70;96953.40;;;;110462;1253;41544;-65
2022/06/22 01:37:23;;;;;;;3.40;1.60;;;;;14.70;96950.80;;;;110357;1253;41147;-65
2022/06/22 01:40:01;;;;;;;3.70;1.70;;;;;14.60;96961.60;;;;110465;1253;42113;-65
2022/06/22 01:42:41;;;;;;;3.70;1.90;;;;;14.60;96966.40;;;;110489;1253;41161;-66
2022/06/22 01:45:37;;;;;;;3.80;1.70;;;;;14.60;96968.60;;;;110710;1252;41308;-65
2022/06/22 01:48:08;;;;;;;2.90;1.60;;;;;14.60;96971.60;;;;110703;1253;41273;-65
2022/06/22 01:50:51;;;;;;;2.40;1.60;;;;;14.60;96969.40;;;;110555;1253;41341;-67
2022/06/22 01:53:34;;;;;;;3.70;1.70;;;;;14.50;96976.80;;;;110615;1253;41274;-65
2022/06/22 01:56:30;;;;;;;4.10;1.80;;;;;14.50;96976.20;;;;110517;1253;41188;-64
2022/06/22 01:59:07;;;;;;;2.20;1.50;;;;;14.50;96974.40;;;;110542;1253;41613;-65
2022/06/22 02:02:02;;;;;;;6.10;1.80;;;;;14.42;96978.00;;;;110397;1254;41221;-65
2022/06/22 02:04:41;;;;;;;3.40;1.70;;;;;14.40;96981.60;;;;110545;1251;41277;-65
2022/06/22 02:10:35;;;;;;;2.50;1.50;;;;;14.30;96981.80;;;;110637;1253;41489;-65
2022/06/22 02:13:24;;;;;;;2.50;1.50;;;;;14.30;96973.40;;;;110526;1253;41263;-65
2022/06/22 02:16:06;;;;;;;3.50;1.60;;;;;14.20;96968.20;;;;110486;1253;41817;-66
2022/06/22 02:19:06;;;;;;;5.50;1.90;;;;;14.20;96960.20;;;;110519;1254;41168;-66
2022/06/22 02:21:49;;;;;;;3.30;1.70;;;;;14.10;96952.80;;;;110306;1255;41146;-65
2022/06/22 02:24:38;;;;;;;4.20;1.50;;;;;14.00;96948.80;;;;110546;1253;41168;-66
2022/06/22 02:27:16;;;;;;;5.50;1.60;;;;;14.00;96945.60;;;;110722;1253;41178;-66
2022/06/22 02:29:49;;;;;;;3.60;1.50;;;;;13.90;96944.20;;;;110651;1253;41259;-67
2022/06/22 02:32:27;;;;;;;2.60;1.70;;;;;13.90;96951.60;;;;110537;1253;41285;-66
2022/06/22 02:34:58;;;;;;;2.60;1.60;;;;;13.86;96942.00;;;;110529;1254;41683;-65
2022/06/22 02:37:29;;;;;;;;;;;;;13.80;96942.80;;;;110542;1253;42098;-65
2022/06/22 02:40:04;;;;;;;4.30;1.80;;;;;13.80;96952.00;;;;110695;1252;41152;-65
2022/06/22 02:45:23;;;;;;;7.50;2.10;;;;;13.80;96975.20;;;;110546;1253;41329;-64
2022/06/22 02:48:00;;;;;;;3.30;1.70;;;;;13.80;96959.80;;;;110476;1253;41143;-64
2022/06/22 02:50:45;;;;;;;4.60;1.90;;;;;13.82;96958.40;;;;110548;1253;41255;-65
2022/06/22 02:53:30;;;;;;;4.20;1.80;;;;;13.80;96960.60;;;;110468;1253;42311;-65
2022/06/22 02:56:07;;;;;;;3.90;1.80;;;;;13.80;96962.60;;;;110617;1253;41134;-65
2022/06/22 02:58:37;;;;;;;5.90;1.90;;;;;13.80;96966.80;;;;110476;1252;41266;-64
2022/06/22 03:01:12;;;;;;;;;;;;;13.80;96957.00;;;;110676;1251;41652;-66
2022/06/22 03:03:49;;;;;;;5.30;1.80;;;;;13.70;96957.40;;;;110562;1253;41160;-66
2022/06/22 03:06:21;;;;;;;3.60;1.60;;;;;13.70;96955.60;;;;110431;1253;41585;-65
2022/06/22 03:08:52;;;;;;;2.80;1.60;;;;;13.70;96944.80;;;;110493;1253;41316;-64
2022/06/22 03:11:22;;;;;;;3.80;1.60;;;;;13.70;96941.00;;;;110482;1254;41152;-65
2022/06/22 03:13:57;;;;;;;3.10;1.70;;;;;13.72;96951.00;;;;110725;1252;41167;-66
2022/06/22 03:16:35;;;;;;;3.00;1.60;;;;;13.70;96954.00;;;;110519;1253;41160;-66
2022/06/22 03:19:10;;;;;;;3.10;1.70;;;;;13.70;96958.40;;;;110536;1253;41153;-66
2022/06/22 03:21:41;;;;;;;2.70;1.70;;;;;13.74;96955.60;;;;110447;1254;41146;-66
2022/06/22 03:24:41;;;;;;;3.50;1.80;;;;;13.80;96961.60;;;;110610;1253;41313;-66
2022/06/22 03:27:18;;;;;;;5.20;1.90;;;;;13.80;96963.00;;;;110601;1253;41157;-65
2022/06/22 03:29:55;;;;;;;4.00;1.80;;;;;13.80;96962.40;;;;110567;1253;42463;-65
2022/06/22 03:32:32;;;;;;;3.30;1.80;;;;;13.80;96968.00;;;;110411;1254;41161;-65
2022/06/22 03:35:09;;;;;;;8.10;1.80;;;;;13.90;96969.60;;;;110617;1253;41286;-65
2022/06/22 03:37:49;;;;;;;3.30;1.60;;;;;13.90;96970.20;;;;110544;1253;42526;-66
2022/06/22 03:40:24;;;;;;;3.80;1.70;;;;;13.90;96972.40;;;;110506;1253;42380;-66
2022/06/22 03:43:03;;;;;;;2.80;1.50;;;;;14.00;96977.20;;;;110506;1253;41259;-66
2022/06/22 03:45:41;;;;;;;6.30;1.70;;;;;14.00;96977.80;;;;110525;1253;42002;-66
2022/06/22 03:48:38;;;;;;;3.00;1.60;;;;;14.00;96985.40;;;;110514;1253;41376;-66
2022/06/22 03:51:29;;;;;;;4.30;1.80;;;;;14.10;96984.60;;;;110639;1252;41161;-65
2022/06/22 03:54:10;;;;;;;;;;;;;14.10;96982.20;;;;110589;1252;41644;-67
2022/06/22 03:56:45;;;;;;;5.10;1.70;;;;;14.20;96983.60;;;;110397;1254;41608;-65
2022/06/22 03:59:15;;;;;;;3.60;1.70;;;;;14.22;96981.60;;;;110486;1253;41154;-65
2022/06/22 04:01:45;;;;;;;5.70;1.70;;;;;14.30;96977.00;;;;110626;1253;41149;-65
2022/06/22 04:04:15;;;;;;;4.00;1.60;;;;;14.30;96981.00;;;;110426;1254;41878;-65
2022/06/22 04:06:49;;;;;;;4.60;1.70;;;;;14.40;96980.20;;;;110653;1253;41302;-65
2022/06/22 04:09:24;;;;;;;4.50;2.00;;;;;14.50;96978.40;;;;110718;1253;41827;-66
2022/06/22 04:12:23;;;;;;;3.40;1.60;;;;;14.52;96985.60;;;;110662;1251;41608;-66
2022/06/22 04:15:09;;;;;;;3.10;1.60;;;;;14.62;96990.80;;;;110593;1253;42042;-66
2022/06/22 04:17:50;;;;;;;4.50;1.80;;;;;14.72;96983.00;;;;110443;1254;41267;-65
2022/06/22 04:20:49;;;;;;;3.40;1.70;;;;;14.90;96984.40;;;;110501;1253;42573;-66
2022/06/22 04:23:34;;;;;;;4.90;1.70;;;;;15.10;96979.60;;;;110468;1254;41430;-67
2022/06/22 04:26:25;;;;;;;3.20;1.60;;;;;16.18;96964.80;;;;110495;1253;41179;-66
2022/06/22 04:29:02;;;;;;;2.30;1.50;;;;;17.92;96952.20;;;;110560;1253;41141;-66
2022/06/22 04:31:35;;;;;;;2.70;1.50;;;;;19.44;96947.80;;;;110267;1256;41172;-66
2022/06/22 04:34:14;;;;;;;2.60;1.60;;;;;20.64;96941.80;;;;110460;1253;41610;-65
2022/06/22 04:36:45;;;;;;;4.70;1.70;;;;;21.64;96950.80;;;;110503;1253;41191;-66
2022/06/22 04:39:19;;;;;;;2.60;1.70;;;;;22.24;96960.00;;;;110609;1253;41266;-66
2022/06/22 04:41:50;;;;;;;4.10;1.50;;;;;22.40;96955.20;;;;110657;1251;41633;-65
2022/06/22 04:44:43;;;;;;;3.90;1.70;;;;;22.62;96956.20;;;;110642;1252;41253;-64
2022/06/22 04:47:29;;;;;;;5.70;1.90;;;;;22.76;96958.80;;;;110565;1253;41173;-66
2022/06/22 04:50:11;;;;;;;6.10;1.90;;;;;23.00;96954.20;;;;110669;1253;42228;-66
2022/06/22 04:52:43;;;;;;;3.60;1.70;;;;;22.80;96958.80;;;;110462;1253;41374;-65
2022/06/22 04:55:17;;;;;;;4.70;1.70;;;;;22.76;96968.00;;;;110514;1253;41501;-65
2022/06/22 04:58:00;;;;;;;2.90;1.60;;;;;23.08;96965.40;;;;110541;1253;41157;-65
2022/06/22 05:00:34;;;;;;;3.20;1.60;;;;;23.12;96959.20;;;;110385;1253;41737;-65
2022/06/22 05:03:09;;;;;;;5.00;1.60;;;;;23.44;96959.40;;;;110391;1254;41596;-66
2022/06/22 05:05:39;;;;;;;3.60;1.80;;;;;24.00;96951.40;;;;110569;1253;41171;-66
2022/06/22 05:08:34;;;;;;;5.60;1.60;;;;;23.76;96954.00;;;;110490;1253;41694;-66
2022/06/22 05:11:16;;;;;;;4.60;1.90;;;;;24.32;96963.20;;;;110428;1253;41868;-65
2022/06/22 05:13:48;;;;;;;5.40;1.60;;;;;24.46;96969.00;;;;110670;1253;41705;-66
2022/06/22 05:16:23;;;;;;;3.00;1.50;;;;;24.80;96973.80;;;;110591;1252;41207;-64
2022/06/22 05:18:54;;;;;;;3.20;1.60;;;;;25.10;96967.60;;;;110534;1253;41238;-65
2022/06/22 05:21:38;;;;;;;3.00;1.50;;;;;25.24;96960.60;;;;110559;1253;41721;-65
2022/06/22 05:24:15;;;;;;;4.00;1.70;;;;;25.20;96963.00;;;;110743;1253;41130;-66
2022/06/22 05:26:45;;;;;;;2.30;1.40;;;;;25.24;96961.60;;;;110725;1253;41143;-65
2022/06/22 05:29:16;;;;;;;3.70;1.40;;;;;24.78;96990.60;;;;110582;1252;41269;-64
2022/06/22 05:31:52;;;;;;;3.70;1.60;;;;;23.42;97009.00;;;;110664;1250;42329;-65
2022/06/22 05:34:31;;;;;;;3.00;1.60;;;;;22.34;97014.20;;;;110538;1252;41162;-66
2022/06/22 05:37:06;;;;;;;3.00;1.30;;;;;21.32;97026.20;;;;110639;1253;41149;-64
2022/06/22 05:39:36;;;;;;;3.50;1.50;;;;;21.08;97032.60;;;;110531;1253;41413;-66
2022/06/22 05:42:07;;;;;;;4.10;1.80;;;;;21.10;97023.80;;;;110486;1253;42000;-66
2022/06/22 05:44:36;;;;;;;3.30;1.50;;;;;20.94;97026.20;;;;110507;1253;41149;-66
2022/06/22 05:47:16;;;;;;;7.90;1.60;;;;;20.60;97022.40;;;;110547;1253;41163;-66
2022/06/22 05:49:58;;;;;;;3.50;1.60;;;;;20.18;97032.20;;;;110423;1254;41162;-66
2022/06/22 05:52:41;;;;;;;2.60;1.50;;;;;20.00;97036.40;;;;110489;1254;41157;-66
2022/06/22 05:55:28;;;;;;;4.20;1.70;;;;;19.80;97029.00;;;;110527;1253;41169;-66
2022/06/22 05:58:14;;;;;;;3.80;1.60;;;;;19.96;97015.40;;;;110577;1253;41146;-66
2022/06/22 06:00:47;;;;;;;4.10;1.70;;;;;20.86;96993.00;;;;110484;1254;41463;-66
2022/06/22 06:03:28;;;;;;;4.20;1.60;;;;;21.76;96985.40;;;;110575;1252;41642;-66
2022/06/22 06:06:26;;;;;;;3.80;1.60;;;;;22.38;96984.00;;;;110635;1252;41934;-67
2022/06/22 06:09:02;;;;;;;3.60;1.60;;;;;23.02;96992.20;;;;110642;1253;41149;-66
2022/06/22 06:11:44;;;;;;;3.40;1.50;;;;;23.58;96990.60;;;;110477;1253;41275;-66
2022/06/22 06:14:34;;;;;;;2.50;1.50;;;;;24.04;96988.40;;;;110376;1253;41322;-66
2022/06/22 06:17:14;;;;;;;5.60;1.80;;;;;24.92;96981.80;;;;110286;1253;41204;-66
2022/06/22 06:19:49;;;;;;;4.00;1.50;;;;;25.26;96982.20;;;;110514;1253;42062;-66
2022/06/22 06:22:20;;;;;;;2.50;1.50;;;;;25.36;96986.00;;;;110552;1253;41144;-66
2022/06/22 06:27:49;;;;;;;2.60;1.50;;;;;25.54;97000.40;;;;110701;1252;41154;-67
2022/06/22 06:30:32;;;;;;;4.10;1.60;;;;;25.48;97010.60;;;;110295;1255;41640;-67
2022/06/22 06:33:10;;;;;;;2.40;1.40;;;;;25.32;97011.40;;;;110632;1253;41151;-67
2022/06/22 06:35:48;;;;;;;3.20;1.50;;;;;25.44;97020.60;;;;110443;1254;41446;-66
2022/06/22 06:38:34;;;;;;;3.40;1.40;;;;;25.68;97017.60;;;;110599;1252;41271;-66
2022/06/22 06:41:18;;;;;;;3.50;1.50;;;;;26.22;97014.20;;;;110472;1253;42433;-66
2022/06/22 06:43:50;;;;;;;4.80;1.50;;;;;26.72;97011.40;;;;110670;1252;41209;-66
2022/06/22 06:46:38;;;;;;;3.00;1.40;;;;;26.82;97006.60;;;;110515;1253;41620;-64
2022/06/22 06:49:31;;;;;;;2.80;1.30;;;;;26.90;97005.60;;;;110591;1253;41159;-66
2022/06/22 06:52:10;;;;;;;4.20;1.70;;;;;26.80;96995.40;;;;110539;1253;41596;-66
2022/06/22 06:54:56;;;;;;;2.60;1.40;;;;;26.34;97002.20;;;;110677;1252;42380;-65
2022/06/22 06:57:25;;;;;;;9.40;1.60;;;;;26.54;97004.20;;;;110541;1253;42467;-66
2022/06/22 06:59:58;;;;;;;4.00;1.50;;;;;26.48;96996.80;;;;110546;1251;41318;-65
2022/06/22 07:02:33;;;;;;;2.50;1.50;;;;;26.02;97001.80;;;;110376;1254;41714;-67
2022/06/22 07:05:06;;;;;;;2.60;1.40;;;;;26.14;97009.80;;;;110623;1252;41266;-65
2022/06/22 07:07:40;;;;;;;4.50;1.60;;;;;26.50;97007.20;;;;110556;1253;41370;-66
2022/06/22 07:10:29;;;;;;;5.10;1.60;;;;;26.14;97005.80;;;;110607;1252;41158;-66
2022/06/22 07:13:00;;;;;;;3.60;1.50;;;;;25.40;97001.40;;;;110569;1253;41954;-67
2022/06/22 07:15:40;;;;;;;3.00;1.40;;;;;25.16;96997.60;;;;110452;1253;41139;-66
2022/06/22 07:18:30;;;;;;;3.00;1.40;;;;;24.70;97011.00;;;;110655;1252;41909;-64
2022/06/22 07:21:15;;;;;;;3.90;1.80;;;;;24.36;97000.00;;;;110512;1253;41152;-66
2022/06/22 07:23:58;;;;;;;4.00;1.40;;;;;24.10;97004.20;;;;110506;1253;41158;-66
2022/06/22 07:26:53;;;;;;;2.70;1.50;;;;;24.02;97002.80;;;;110695;1252;42112;-66
2022/06/22 07:29:23;;;;;;;3.40;1.40;;;;;23.90;97003.00;;;;110335;1253;395613;-66
2022/06/22 07:32:03;;;;;;;3.20;1.60;;;;;23.84;97009.80;;;;110589;1253;41633;-65
2022/06/22 07:34:44;;;;;;;6.00;1.80;;;;;23.90;97004.20;;;;110514;1253;41882;-66
2022/06/22 07:37:27;;;;;;;4.20;1.50;;;;;23.90;97009.60;;;;110500;1253;41269;-66
2022/06/22 07:40:18;;;;;;;3.50;1.50;;;;;23.96;97007.40;;;;110709;1252;41382;-65
2022/06/22 07:42:50;;;;;;;2.40;1.40;;;;;23.90;97005.40;;;;110588;1253;41156;-66
2022/06/22 07:45:21;;;;;;;4.20;1.60;;;;;23.82;97013.80;;;;110642;1251;41158;-66
2022/06/22 07:47:57;;;;;;;2.60;1.50;;;;;23.90;97019.40;;;;110654;1252;42018;-65
2022/06/22 07:50:32;;;;;;;5.30;1.50;;;;;24.00;97036.80;;;;110483;1253;41130;-66
2022/06/22 07:53:25;;;;;;;2.50;1.50;;;;;24.12;97037.20;;;;110532;1253;41145;-66
2022/06/22 07:56:06;;;;;;;2.80;1.40;;;;;24.30;97024.60;;;;110414;1254;41955;-67
2022/06/22 07:58:50;;;;;;;3.40;1.30;;;;;24.40;97011.00;;;;110500;1253;41198;-67
2022/06/22 08:01:25;;;;;;;4.10;1.50;;;;;24.12;97017.00;;;;110628;1251;42397;-66
2022/06/22 08:04:00;;;;;;;2.10;1.40;;;;;24.00;97020.40;;;;110551;1253;41152;-66
2022/06/22 08:06:33;;;;;;;4.80;1.80;;;;;23.98;97017.60;;;;110391;1253;42031;-66
2022/06/22 08:09:16;;;;;;;3.50;1.40;;;;;23.72;97020.40;;;;110335;1256;41516;-66
2022/06/22 08:12:14;;;;;;;2.00;1.40;;;;;23.56;97022.80;;;;110393;1254;41252;-66
2022/06/22 08:14:46;;;;;;;1.70;1.30;;;;;23.66;97023.00;;;;110485;1254;42043;-68
2022/06/22 08:17:44;;;;;;;4.00;1.60;;;;;23.90;97027.20;;;;110653;1253;41720;-67
2022/06/22 08:20:17;;;;;;;3.60;1.60;;;;;23.96;97038.20;;;;110497;1253;41146;-68
2022/06/22 08:22:48;;;;;;;5.50;1.40;;;;;23.76;97037.80;;;;110527;1254;41149;-67
2022/06/22 08:25:20;;;;;;;6.20;1.50;;;;;23.64;97039.00;;;;110626;1254;41159;-67
2022/06/22 08:27:50;;;;;;;1.80;1.40;;;;;23.80;97038.40;;;;110513;1253;41177;-67
2022/06/22 08:30:22;;;;;;;2.70;1.30;;;;;23.90;97040.00;;;;110492;1253;41381;-67
2022/06/22 08:33:00;;;;;;;3.60;1.40;;;;;23.96;97044.20;;;;110544;1253;41194;-67
2022/06/22 08:35:35;;;;;;;2.40;1.30;;;;;24.18;97027.80;;;;110492;1253;41189;-68
2022/06/22 08:38:29;;;;;;;2.50;1.30;;;;;24.20;97031.00;;;;110506;1253;42199;-66
2022/06/22 08:41:10;;;;;;;2.20;1.30;;;;;24.20;97027.80;;;;110502;1253;41253;-69
2022/06/22 08:43:42;;;;;;;3.00;1.40;;;;;24.18;97036.80;;;;110640;1253;41463;-68
2022/06/22 08:46:43;;;;;;;2.00;1.30;;;;;24.10;97029.00;;;;110554;1254;41536;-68
2022/06/22 08:49:27;;;;;;;3.00;1.30;;;;;24.30;97028.40;;;;110587;1253;41937;-68
2022/06/22 08:52:03;;;;;;;2.80;1.40;;;;;24.58;97021.60;;;;110625;1253;41154;-67
2022/06/22 08:55:11;;;;;;;3.50;1.40;;;;;24.60;97027.60;;;;110473;1253;41170;-66
2022/06/22 08:57:49;;;;;;;1.90;1.10;;;;;24.94;97028.20;;;;110557;1253;41721;-66
2022/06/22 09:00:43;;;;;;;1.70;1.20;;;;;25.00;97036.00;;;;110497;1254;42757;-67
2022/06/22 09:03:48;;;;;;;2.20;1.20;;;;;25.14;97028.60;;;;110514;1253;41444;-67
2022/06/22 09:06:21;;;;;;;2.20;1.10;;;;;25.40;97032.60;;;;110546;1254;41320;-67
2022/06/22 09:09:20;;;;;;;3.10;1.40;;;;;25.48;97020.40;;;;110553;1254;41268;-67
2022/06/22 09:11:54;;;;;;;1.90;1.20;;;;;25.36;97031.00;;;;110497;1254;41393;-67
2022/06/22 09:15:05;;;;;;;3.40;1.30;;;;;25.02;97025.20;;;;110491;1253;41149;-67
2022/06/22 09:18:14;;;;;;;1.30;1.20;;;;;25.34;97022.40;;;;110480;1253;41136;-67
2022/06/22 09:20:58;;;;;;;2.30;1.10;;;;;25.20;97034.40;;;;110548;1253;41429;-66
2022/06/22 09:23:33;;;;;;;3.20;1.20;;;;;25.32;97038.80;;;;110469;1252;41144;-67
2022/06/22 09:26:18;;;;;;;2.70;1.20;;;;;25.92;97040.60;;;;110533;1253;41726;-67
2022/06/22 09:28:58;;;;;;;2.60;1.30;;;;;26.90;97035.40;;;;110566;1253;41140;-67
2022/06/22 09:31:48;;;;;;;2.20;1.20;;;;;27.40;97034.00;;;;110553;1253;42928;-67
2022/06/22 09:34:53;;;;;;;1.60;1.10;;;;;27.94;97020.60;;;;110573;1253;42214;-66
2022/06/22 09:37:48;;;;;;;1.50;1.00;;;;;28.66;97022.20;;;;110455;1253;41878;-66
2022/06/22 09:40:23;;;;;;;2.80;1.30;;;;;29.02;97016.40;;;;110392;1254;41149;-66
2022/06/22 09:43:13;;;;;;;1.80;1.10;;;;;29.06;97011.40;;;;110544;1252;41154;-67
2022/06/22 09:46:08;;;;;;;1.90;1.10;;;;;28.38;97021.60;;;;110459;1253;41266;-66
2022/06/22 09:48:58;;;;;;;2.00;1.10;;;;;27.84;97018.80;;;;110436;1254;41163;-67
2022/06/22 09:51:48;;;;;;;2.40;1.10;;;;;27.70;97010.00;;;;110573;1253;41191;-68
2022/06/22 09:57:36;;;;;;;4.20;1.20;;;;;27.48;97015.60;;;;110387;1254;41150;-67
2022/06/22 10:00:16;;;;;;;2.30;1.30;;;;;27.70;97007.60;;;;110488;1253;41274;-67
2022/06/22 10:03:22;;;;;;;2.90;1.30;;;;;27.70;97005.40;;;;110365;1254;41155;-67
2022/06/22 10:06:31;;;;;;;2.00;1.20;;;;;27.44;97012.00;;;;110430;1253;41264;-67
2022/06/22 10:09:12;;;;;;;3.80;1.30;;;;;27.64;96999.00;;;;110414;1253;41185;-67
2022/06/22 10:11:48;;;;;;;3.00;1.30;;;;;27.38;97007.00;;;;110495;1254;42105;-67
2022/06/22 10:15:14;;;;;;;2.20;1.10;;;;;27.98;97001.40;;;;110260;1254;41997;-67
2022/06/22 10:17:58;;;;;;;2.20;1.30;;;;;28.28;96989.60;;;;110029;1259;41162;-67
2022/06/22 10:20:55;;;;;;;2.20;1.20;;;;;28.10;97000.80;;;;109963;1259;42611;-66
2022/06/22 10:23:53;;;;;;;2.10;1.20;;;;;27.24;96987.80;;;;110168;1259;41282;-67
2022/06/22 10:26:51;;;;;;;1.40;1.10;;;;;27.26;96996.00;;;;110143;1259;41389;-68
2022/06/22 10:29:47;;;;;;;2.90;1.20;;;;;27.60;96987.20;;;;110178;1260;42397;-67
2022/06/22 10:32:36;;;;;;;5.90;1.30;;;;;27.98;96987.60;;;;110144;1259;42295;-67
2022/06/22 10:35:05;;;;;;;2.50;1.30;;;;;28.16;96985.40;;;;109963;1260;41316;-67
2022/06/22 10:38:06;;;;;;;3.10;1.40;;;;;28.00;96983.60;;;;110106;1260;41181;-67
2022/06/22 10:47:38;;;;;;;2.30;1.30;;;;;27.22;96989.40;;;;109320;1264;41620;-67
2022/06/22 10:50:28;;;;;;;6.10;1.50;;;;;27.34;96988.60;;;;109734;1259;41203;-68
2022/06/22 10:53:27;;;;;;;0.90;0.90;;;;;27.96;96979.40;;;;110512;1253;41621;-68
2022/06/22 10:56:22;;;;;;;2.10;1.10;;;;;28.52;96977.60;;;;110598;1253;41156;-66
2022/06/22 10:59:19;;;;;;;4.30;1.30;;;;;29.10;96966.80;;;;110499;1253;41157;-68
2022/06/22 11:02:38;;;;;;;3.40;1.00;;;;;29.18;96976.00;;;;110607;1254;41955;-68
2022/06/22 11:05:33;;;;;;;2.40;1.30;;;;;29.70;96975.40;;;;110627;1254;41278;-68
2022/06/22 11:08:26;;;;;;;2.30;1.30;;;;;29.20;96980.80;;;;110549;1255;43531;-67
2022/06/22 11:11:21;;;;;;;2.90;1.20;;;;;28.94;96974.80;;;;110356;1255;41147;-68
2022/06/22 11:14:11;;;;;;;6.00;1.30;;;;;30.22;96971.60;;;;110535;1255;41436;-67
2022/06/22 11:16:49;;;;;;;1.60;1.20;;;;;31.48;96962.20;;;;110626;1253;41157;-67
2022/06/22 11:19:38;;;;;;;3.00;1.20;;;;;31.52;96967.60;;;;110667;1254;41161;-67
2022/06/22 11:22:20;;;;;;;2.10;1.10;;;;;31.88;96962.00;;;;110634;1254;41151;-68
2022/06/22 11:25:12;;;;;;;1.40;1.10;;;;;32.74;96962.40;;;;110678;1254;41156;-67
2022/06/22 11:31:19;;;;;;;3.40;1.40;;;;;33.46;96952.80;;;;110203;1254;42894;-67
2022/06/22 11:34:31;;;;;;;1.70;1.10;;;;;33.30;96959.60;;;;110642;1253;41154;-68
2022/06/22 11:37:17;;;;;;;2.90;1.30;;;;;32.26;96960.20;;;;110374;1255;41258;-66
2022/06/22 11:40:36;;;;;;;2.40;1.20;;;;;31.24;96949.80;;;;110627;1253;41967;-67
2022/06/22 11:43:23;;;;;;;2.00;1.10;;;;;30.76;96964.80;;;;110650;1253;41597;-67
2022/06/22 11:46:24;;;;;;;2.40;1.20;;;;;29.90;96958.80;;;;110596;1254;41146;-67
2022/06/22 11:49:31;;;;;;;4.40;1.30;;;;;30.40;96978.60;;;;110496;1255;41950;-67
2022/06/22 11:52:03;;;;;;;5.00;1.40;;;;;30.14;96966.60;;;;110560;1256;42019;-67
2022/06/22 11:54:50;;;;;;;1.90;1.10;;;;;30.60;96964.80;;;;110624;1253;41160;-67
2022/06/22 11:57:39;;;;;;;2.30;1.30;;;;;30.90;96959.00;;;;110638;1253;41256;-67
2022/06/22 12:00:16;;;;;;;1.80;1.20;;;;;31.58;96961.60;;;;110634;1254;40924;-67
2022/06/22 12:02:53;;;;;;;2.70;1.30;;;;;31.76;96962.40;;;;110533;1255;41250;-68
2022/06/22 12:05:47;;;;;;;2.30;1.20;;;;;31.66;96961.40;;;;110648;1254;41150;-65
2022/06/22 12:08:37;;;;;;;1.70;1.20;;;;;30.78;96970.00;;;;110402;1253;41154;-68
2022/06/22 12:11:27;;;;;;;2.70;1.30;;;;;30.20;96974.60;;;;110640;1253;41154;-67
2022/06/22 12:17:02;;;;;;;3.60;1.40;;;;;28.58;96971.60;;;;110435;1254;41236;-67
2022/06/22 12:19:49;;;;;;;2.30;1.30;;;;;28.16;96965.40;;;;110485;1254;41175;-67
2022/06/22 12:22:31;;;;;;;1.50;1.10;;;;;27.70;96967.20;;;;110509;1253;41612;-67
2022/06/22 12:25:18;;;;;;;1.10;1.10;;;;;27.60;96968.40;;;;110544;1253;41161;-67
2022/06/22 12:28:22;;;;;;;1.20;1.10;;;;;27.48;96970.80;;;;110638;1253;41269;-68
2022/06/22 12:31:03;;;;;;;3.70;1.30;;;;;27.20;96960.00;;;;110634;1255;41147;-67
2022/06/22 12:33:43;;;;;;;2.70;1.20;;;;;27.00;96957.80;;;;110598;1255;40753;-67
2022/06/22 12:36:50;;;;;;;1.80;1.20;;;;;27.00;96958.00;;;;110616;1255;41143;-67
2022/06/22 12:39:33;;;;;;;;;;;;;26.82;96954.80;;;;110646;1256;41145;-67
2022/06/22 12:42:20;;;;;;;2.30;1.20;;;;;26.52;96961.00;;;;110574;1253;41663;-67
2022/06/22 12:45:11;;;;;;;3.00;1.20;;;;;26.70;96953.40;;;;110643;1253;42604;-67
2022/06/22 12:48:04;;;;;;;1.60;1.10;;;;;26.70;96950.40;;;;110576;1255;41255;-68
2022/06/22 12:50:45;;;;;;;2.20;1.10;;;;;26.80;96956.80;;;;110461;1255;41365;-67
2022/06/22 12:53:20;;;;;;;2.40;1.20;;;;;26.78;96958.00;;;;110437;1253;41338;-67
2022/06/22 12:55:56;;;;;;;1.80;1.20;;;;;26.72;96960.40;;;;110357;1256;41160;-69
2022/06/22 12:58:46;;;;;;;3.40;1.40;;;;;26.70;96960.40;;;;110599;1253;41259;-68
2022/06/22 13:01:16;;;;;;;3.00;1.40;;;;;26.62;96959.40;;;;110509;1253;41196;-68
2022/06/22 13:03:52;;;;;;;;;;;;;26.70;96957.40;;;;110432;1256;41163;-66
2022/06/22 13:06:23;;;;;;;1.60;1.20;;;;;26.54;96951.00;;;;110298;1253;41267;-66
2022/06/22 13:08:52;;;;;;;2.80;1.20;;;;;26.50;96942.40;;;;110667;1254;42168;-68
2022/06/22 13:11:24;;;;;;;2.00;0.90;;;;;26.50;96949.80;;;;110367;1253;41147;-67
2022/06/22 13:14:02;;;;;;;3.50;1.20;;;;;26.60;96960.80;;;;110427;1256;41162;-67
2022/06/22 13:16:49;;;;;;;1.40;1.10;;;;;26.70;96958.20;;;;110470;1254;41196;-66
2022/06/22 13:19:31;;;;;;;4.70;1.30;;;;;26.58;96956.80;;;;110646;1253;41623;-67
2022/06/22 13:22:17;;;;;;;4.10;1.20;;;;;26.68;96967.80;;;;110657;1254;41717;-67
2022/06/22 13:25:33;;;;;;;2.50;1.40;;;;;26.60;96960.80;;;;110445;1255;42108;-66
2022/06/22 13:28:29;;;;;;;2.40;1.20;;;;;26.50;96955.80;;;;110547;1254;41956;-68
2022/06/22 13:31:13;;;;;;;2.80;1.20;;;;;26.60;96958.80;;;;110537;1255;41161;-66
2022/06/22 13:33:49;;;;;;;1.90;1.20;;;;;26.56;96959.60;;;;110493;1254;41146;-68
2022/06/22 13:36:55;;;;;;;2.60;1.10;;;;;26.60;96958.20;;;;110484;1254;41160;-66
2022/06/22 13:39:44;;;;;;;1.70;1.10;;;;;26.60;96957.60;;;;110519;1253;41433;-66
2022/06/22 13:42:28;;;;;;;1.80;1.10;;;;;26.50;96954.00;;;;110614;1253;41642;-66
2022/06/22 13:45:07;;;;;;;1.70;1.20;;;;;26.30;96941.20;;;;110431;1253;41300;-66
2022/06/22 13:47:42;;;;;;;4.30;1.30;;;;;26.30;96942.40;;;;110429;1254;41149;-67
2022/06/22 13:50:33;;;;;;;1.80;1.10;;;;;26.20;96932.20;;;;110523;1255;41168;-66
2022/06/22 13:53:27;;;;;;;1.20;1.10;;;;;26.00;96938.60;;;;110529;1253;41372;-66